Alexandra — WDD5677 — position and weather

sailwx.info

Track history (hours):
 
Tides and Currents Weather Stations Pressure Air Temp Water Temp Dewpoint Dewpoint Depression Visibility Wind Speed Wind Dir Waves Ship Positions

Alexandra

Owner: Weeks Marine, Inc., Cranford, NJ. More information available from US FCC via Universal Licensing System and Coast Guard Vessel Documentation Center.

Last reported at 2018-Jul-20 11:15 UTC. Time now 2018-Jul-22 03:12 UTC.
Position N 40°29' W 073°58'.

Length 37 m; draft 5 m.

Type: Tug. MMSI: 367161950.

Date/timePositionNaut miles runAvg speedWind from/ knotsBaromVisibWave heightAir tempDewpointWater temp
2018-Jul-20 11:15N 40°29' W 073°58'2 9.8
2018-Jul-20 11:00N 40°29' W 074°01'5 6.9
2018-Jul-20 10:16N 40°30' W 074°07'1 5.0
2018-Jul-20 09:59N 40°30' W 074°09'4 8.2
2018-Jul-20 09:30N 40°29' W 074°14'3 5.3
2018-Jul-20 08:56N 40°32' W 074°15'0 0.0
2018-Jul-20 06:52N 40°32' W 074°15'0 0.0
2018-Jul-20 06:26N 40°32' W 074°15'0 0.0
2018-Jul-20 03:27N 40°32' W 074°15'5 0.2
2018-Jul-18 21:36N 40°30' W 074°09'1 7.1
2018-Jul-18 21:29N 40°30' W 074°08'2 0.0
2018-Jul-16 17:47N 40°29' W 074°06'6 6.3
2018-Jul-16 16:53N 40°29' W 073°59'2 4.8
2018-Jul-16 16:30N 40°30' W 073°56'5 1.1
2018-Jul-16 11:37N 40°29' W 074°04'7 8.2
2018-Jul-16 10:47N 40°30' W 074°12'4 0.1
2018-Jul-14 19:43N 40°30' W 074°07'3 5.8
2018-Jul-14 19:09N 40°30' W 074°03'2 6.0
2018-Jul-14 18:53N 40°31' W 074°02'8 1.0
2018-Jul-14 10:50N 40°30' W 074°13'3 2.4
2018-Jul-14 09:37N 40°32' W 074°15'0 0.0
2018-Jul-14 09:30N 40°32' W 074°15'0 0.0
2018-Jul-14 09:00N 40°32' W 074°15'0 0.0
2018-Jul-14 08:28N 40°32' W 074°15'0 0.0
2018-Jul-14 08:00N 40°32' W 074°15'0 0.0
2018-Jul-14 07:30N 40°32' W 074°15'0 0.0
2018-Jul-14 06:49N 40°32' W 074°15'0 0.0
2018-Jul-14 06:28N 40°32' W 074°15'0 0.0
2018-Jul-13 11:57N 40°32' W 074°15'0 0.0
2018-Jul-13 11:30N 40°32' W 074°15'0 0.0
2018-Jul-13 10:58N 40°32' W 074°15'0 0.0
2018-Jul-13 10:26N 40°32' W 074°15'0 0.0
2018-Jul-13 09:59N 40°32' W 074°15'0 0.0
2018-Jul-13 09:30N 40°32' W 074°15'0 0.0
2018-Jul-13 08:57N 40°32' W 074°15'0 0.0
2018-Jul-13 08:12N 40°32' W 074°15'0 0.0
2018-Jul-13 08:00N 40°32' W 074°15'0 0.0
2018-Jul-13 07:30N 40°32' W 074°15'0 0.0
2018-Jul-13 07:00N 40°32' W 074°15'0 0.0
2018-Jul-13 06:30N 40°32' W 074°15'0 0.0
2018-Jul-13 06:00N 40°32' W 074°15'0 0.0
2018-Jul-13 05:30N 40°32' W 074°15'0 0.0
2018-Jul-13 04:32N 40°32' W 074°15'0 0.0
2018-Jul-13 04:26N 40°32' W 074°15'0 0.0
2018-Jul-13 03:20N 40°32' W 074°15'0 0.0
2018-Jul-13 02:59N 40°32' W 074°15'6 0.6
2018-Jul-12 17:03N 40°30' W 074°08'2 7.0
2018-Jul-12 16:50N 40°29' W 074°06'2 6.4
2018-Jul-12 16:27N 40°30' W 074°03'4 0.8
2018-Jul-12 10:46N 40°34' W 074°02'1 3.5
2018-Jul-12 10:27N 40°35' W 074°02'2 5.1
2018-Jul-12 10:00N 40°37' W 074°03'3 6.2
2018-Jul-12 09:30N 40°40' W 074°04'0 0.8
2018-Jul-12 09:00N 40°40' W 074°04'0 0.0
2018-Jul-12 08:30N 40°40' W 074°04'0 0.0
2018-Jul-12 08:00N 40°40' W 074°04'0 0.0
2018-Jul-12 07:30N 40°40' W 074°04'0 0.0
2018-Jul-12 07:00N 40°40' W 074°04'0 0.0
2018-Jul-12 06:30N 40°40' W 074°04'0 0.0
2018-Jul-12 06:00N 40°40' W 074°04'0 0.0
2018-Jul-12 05:30N 40°40' W 074°04'0 0.0
2018-Jul-12 05:00N 40°40' W 074°04'0 0.0
2018-Jul-12 04:30N 40°40' W 074°04'0 0.0
2018-Jul-12 04:00N 40°40' W 074°04'0 0.0
2018-Jul-12 03:30N 40°40' W 074°04'0 0.0
2018-Jul-12 03:00N 40°40' W 074°04'0 0.0
2018-Jul-12 02:30N 40°40' W 074°04'0 0.0
2018-Jul-12 02:00N 40°40' W 074°04'0 0.0
2018-Jul-12 01:30N 40°40' W 074°04'0 0.0
2018-Jul-12 01:00N 40°40' W 074°04'0 0.0
2018-Jul-12 00:30N 40°40' W 074°04'0 0.0
2018-Jul-12 00:00N 40°40' W 074°04'0 0.0
2018-Jul-11 23:30N 40°40' W 074°04'0 0.0
2018-Jul-11 23:00N 40°40' W 074°04'0 0.0
2018-Jul-11 22:30N 40°40' W 074°04'0 0.0
2018-Jul-11 22:00N 40°40' W 074°04'0 0.0
2018-Jul-11 21:30N 40°40' W 074°04'0 0.0
2018-Jul-11 21:00N 40°40' W 074°04'0 0.4
2018-Jul-11 20:30N 40°41' W 074°05'0 0.0
2018-Jul-11 20:00N 40°41' W 074°05'0 0.0
2018-Jul-11 19:30N 40°41' W 074°05'0 0.4
2018-Jul-11 19:00N 40°40' W 074°04'0 0.0
2018-Jul-11 18:30N 40°40' W 074°04'0 0.0
2018-Jul-11 18:00N 40°40' W 074°04'0 0.0
2018-Jul-11 17:30N 40°40' W 074°04'0 0.0
2018-Jul-11 17:00N 40°40' W 074°04'0 0.0
2018-Jul-11 16:30N 40°40' W 074°04'0 0.0
2018-Jul-11 16:00N 40°40' W 074°04'0 0.0
2018-Jul-11 15:30N 40°40' W 074°04'0 0.0
2018-Jul-11 15:00N 40°40' W 074°04'0 0.0
2018-Jul-11 14:30N 40°40' W 074°04'0 0.0
2018-Jul-11 14:00N 40°40' W 074°04'0 0.0
2018-Jul-11 13:30N 40°40' W 074°04'0 0.0
2018-Jul-11 13:00N 40°40' W 074°04'0 0.0
2018-Jul-11 12:30N 40°40' W 074°04'0 0.0
2018-Jul-11 12:01N 40°40' W 074°04'0 0.0
2018-Jul-11 11:30N 40°40' W 074°04'0 0.0
2018-Jul-11 11:00N 40°40' W 074°04'0 0.0
2018-Jul-11 10:30N 40°40' W 074°04'0 0.0
2018-Jul-11 10:00N 40°40' W 074°04'0 0.0
2018-Jul-11 09:30N 40°40' W 074°04'0 0.0
2018-Jul-11 09:00N 40°40' W 074°04'0 0.0
2018-Jul-11 08:30N 40°40' W 074°04'0 0.0
2018-Jul-11 08:00N 40°40' W 074°04'0 0.0
2018-Jul-11 07:30N 40°40' W 074°04'0 0.0
2018-Jul-11 07:00N 40°40' W 074°04'0 0.0
2018-Jul-11 06:30N 40°40' W 074°04'0 0.0
2018-Jul-11 06:00N 40°40' W 074°04'0 0.0
2018-Jul-11 05:30N 40°40' W 074°04'0 0.0
2018-Jul-11 05:00N 40°40' W 074°04'0 0.0
2018-Jul-11 04:30N 40°40' W 074°04'0 0.0
2018-Jul-11 04:00N 40°40' W 074°04'0 0.0
2018-Jul-11 03:30N 40°40' W 074°04'0 0.0
2018-Jul-11 03:00N 40°40' W 074°04'0 0.0
2018-Jul-11 02:30N 40°40' W 074°04'0 0.0
2018-Jul-11 02:00N 40°40' W 074°04'0 0.0
2018-Jul-11 01:30N 40°40' W 074°04'0 0.0
2018-Jul-11 01:00N 40°40' W 074°04'0 0.0
2018-Jul-11 00:30N 40°40' W 074°04'0 0.0
2018-Jul-11 00:00N 40°40' W 074°04'0 0.0
2018-Jul-10 23:30N 40°40' W 074°04'0 0.0
2018-Jul-10 23:00N 40°40' W 074°04'0 0.0
2018-Jul-10 22:30N 40°40' W 074°04'0 0.0
2018-Jul-10 22:00N 40°40' W 074°04'0 0.0
2018-Jul-10 21:30N 40°40' W 074°04'0 0.0
2018-Jul-10 21:00N 40°40' W 074°04'0 0.0
2018-Jul-10 20:30N 40°40' W 074°04'0 0.0
2018-Jul-10 20:00N 40°40' W 074°04'0 0.0
2018-Jul-10 19:30N 40°40' W 074°04'0 0.0
2018-Jul-10 19:00N 40°40' W 074°04'0 0.0
2018-Jul-10 18:30N 40°40' W 074°04'0 0.0
2018-Jul-10 18:00N 40°40' W 074°04'0 0.0
2018-Jul-10 17:30N 40°40' W 074°04'0 0.0
2018-Jul-10 17:00N 40°40' W 074°04'0 0.0
2018-Jul-10 16:30N 40°40' W 074°04'0 0.0
2018-Jul-10 16:00N 40°40' W 074°04'0 0.0
2018-Jul-10 15:30N 40°40' W 074°04'0 0.0
2018-Jul-10 15:00N 40°40' W 074°04'0 0.0
2018-Jul-10 14:30N 40°40' W 074°04'0 0.0
2018-Jul-10 14:00N 40°40' W 074°04'0 0.0
2018-Jul-10 13:30N 40°40' W 074°04'0 0.0
2018-Jul-10 13:00N 40°40' W 074°04'0 0.0
2018-Jul-10 12:30N 40°40' W 074°04'0 0.0
2018-Jul-10 12:00N 40°40' W 074°04'0 0.0
2018-Jul-10 11:30N 40°40' W 074°04'  
Track history (hours):
 
Tides and Currents Weather Stations Pressure Air Temp Water Temp Dewpoint Dewpoint Depression Visibility Wind Speed Wind Dir Waves Ship Positions

Alexandra

Owner: Weeks Marine, Inc., Cranford, NJ. More information available from US FCC via Universal Licensing System and Coast Guard Vessel Documentation Center.

Last reported at 2018-Jul-20 11:15 UTC. Time now 2018-Jul-22 03:12 UTC.
Position N 40°29' W 073°58'.

Length 37 m; draft 5 m.

Type: Tug. MMSI: 367161950.

Date/timePositionNaut miles runAvg speedWind from/ knotsBaromVisibWave heightAir tempDewpointWater temp
2018-Jul-20 11:15N 40°29' W 073°58'2 9.8
2018-Jul-20 11:00N 40°29' W 074°01'5 6.9
2018-Jul-20 10:16N 40°30' W 074°07'1 5.0
2018-Jul-20 09:59N 40°30' W 074°09'4 8.2
2018-Jul-20 09:30N 40°29' W 074°14'3 5.3
2018-Jul-20 08:56N 40°32' W 074°15'0 0.0
2018-Jul-20 06:52N 40°32' W 074°15'0 0.0
2018-Jul-20 06:26N 40°32' W 074°15'0 0.0
2018-Jul-20 03:27N 40°32' W 074°15'5 0.2
2018-Jul-18 21:36N 40°30' W 074°09'1 7.1
2018-Jul-18 21:29N 40°30' W 074°08'2 0.0
2018-Jul-16 17:47N 40°29' W 074°06'6 6.3
2018-Jul-16 16:53N 40°29' W 073°59'2 4.8
2018-Jul-16 16:30N 40°30' W 073°56'5 1.1
2018-Jul-16 11:37N 40°29' W 074°04'7 8.2
2018-Jul-16 10:47N 40°30' W 074°12'4 0.1
2018-Jul-14 19:43N 40°30' W 074°07'3 5.8
2018-Jul-14 19:09N 40°30' W 074°03'2 6.0
2018-Jul-14 18:53N 40°31' W 074°02'8 1.0
2018-Jul-14 10:50N 40°30' W 074°13'3 2.4
2018-Jul-14 09:37N 40°32' W 074°15'0 0.0
2018-Jul-14 09:30N 40°32' W 074°15'0 0.0
2018-Jul-14 09:00N 40°32' W 074°15'0 0.0
2018-Jul-14 08:28N 40°32' W 074°15'0 0.0
2018-Jul-14 08:00N 40°32' W 074°15'0 0.0
2018-Jul-14 07:30N 40°32' W 074°15'0 0.0
2018-Jul-14 06:49N 40°32' W 074°15'0 0.0
2018-Jul-14 06:28N 40°32' W 074°15'0 0.0
2018-Jul-13 11:57N 40°32' W 074°15'0 0.0
2018-Jul-13 11:30N 40°32' W 074°15'0 0.0
2018-Jul-13 10:58N 40°32' W 074°15'0 0.0
2018-Jul-13 10:26N 40°32' W 074°15'0 0.0
2018-Jul-13 09:59N 40°32' W 074°15'0 0.0
2018-Jul-13 09:30N 40°32' W 074°15'0 0.0
2018-Jul-13 08:57N 40°32' W 074°15'0 0.0
2018-Jul-13 08:12N 40°32' W 074°15'0 0.0
2018-Jul-13 08:00N 40°32' W 074°15'0 0.0
2018-Jul-13 07:30N 40°32' W 074°15'0 0.0
2018-Jul-13 07:00N 40°32' W 074°15'0 0.0
2018-Jul-13 06:30N 40°32' W 074°15'0 0.0
2018-Jul-13 06:00N 40°32' W 074°15'0 0.0
2018-Jul-13 05:30N 40°32' W 074°15'0 0.0
2018-Jul-13 04:32N 40°32' W 074°15'0 0.0
2018-Jul-13 04:26N 40°32' W 074°15'0 0.0
2018-Jul-13 03:20N 40°32' W 074°15'0 0.0
2018-Jul-13 02:59N 40°32' W 074°15'6 0.6
2018-Jul-12 17:03N 40°30' W 074°08'2 7.0
2018-Jul-12 16:50N 40°29' W 074°06'2 6.4
2018-Jul-12 16:27N 40°30' W 074°03'4 0.8
2018-Jul-12 10:46N 40°34' W 074°02'1 3.5
2018-Jul-12 10:27N 40°35' W 074°02'2 5.1
2018-Jul-12 10:00N 40°37' W 074°03'3 6.2
2018-Jul-12 09:30N 40°40' W 074°04'0 0.8
2018-Jul-12 09:00N 40°40' W 074°04'0 0.0
2018-Jul-12 08:30N 40°40' W 074°04'0 0.0
2018-Jul-12 08:00N 40°40' W 074°04'0 0.0
2018-Jul-12 07:30N 40°40' W 074°04'0 0.0
2018-Jul-12 07:00N 40°40' W 074°04'0 0.0
2018-Jul-12 06:30N 40°40' W 074°04'0 0.0
2018-Jul-12 06:00N 40°40' W 074°04'0 0.0
2018-Jul-12 05:30N 40°40' W 074°04'0 0.0
2018-Jul-12 05:00N 40°40' W 074°04'0 0.0
2018-Jul-12 04:30N 40°40' W 074°04'0 0.0
2018-Jul-12 04:00N 40°40' W 074°04'0 0.0
2018-Jul-12 03:30N 40°40' W 074°04'0 0.0
2018-Jul-12 03:00N 40°40' W 074°04'0 0.0
2018-Jul-12 02:30N 40°40' W 074°04'0 0.0
2018-Jul-12 02:00N 40°40' W 074°04'0 0.0
2018-Jul-12 01:30N 40°40' W 074°04'0 0.0
2018-Jul-12 01:00N 40°40' W 074°04'0 0.0
2018-Jul-12 00:30N 40°40' W 074°04'0 0.0
2018-Jul-12 00:00N 40°40' W 074°04'0 0.0
2018-Jul-11 23:30N 40°40' W 074°04'0 0.0
2018-Jul-11 23:00N 40°40' W 074°04'0 0.0
2018-Jul-11 22:30N 40°40' W 074°04'0 0.0
2018-Jul-11 22:00N 40°40' W 074°04'0 0.0
2018-Jul-11 21:30N 40°40' W 074°04'0 0.0
2018-Jul-11 21:00N 40°40' W 074°04'0 0.4
2018-Jul-11 20:30N 40°41' W 074°05'0 0.0
2018-Jul-11 20:00N 40°41' W 074°05'0 0.0
2018-Jul-11 19:30N 40°41' W 074°05'0 0.4
2018-Jul-11 19:00N 40°40' W 074°04'0 0.0
2018-Jul-11 18:30N 40°40' W 074°04'0 0.0
2018-Jul-11 18:00N 40°40' W 074°04'0 0.0
2018-Jul-11 17:30N 40°40' W 074°04'0 0.0
2018-Jul-11 17:00N 40°40' W 074°04'0 0.0
2018-Jul-11 16:30N 40°40' W 074°04'0 0.0
2018-Jul-11 16:00N 40°40' W 074°04'0 0.0
2018-Jul-11 15:30N 40°40' W 074°04'0 0.0
2018-Jul-11 15:00N 40°40' W 074°04'0 0.0
2018-Jul-11 14:30N 40°40' W 074°04'0 0.0
2018-Jul-11 14:00N 40°40' W 074°04'0 0.0
2018-Jul-11 13:30N 40°40' W 074°04'0 0.0
2018-Jul-11 13:00N 40°40' W 074°04'0 0.0
2018-Jul-11 12:30N 40°40' W 074°04'0 0.0
2018-Jul-11 12:01N 40°40' W 074°04'0 0.0
2018-Jul-11 11:30N 40°40' W 074°04'0 0.0
2018-Jul-11 11:00N 40°40' W 074°04'0 0.0
2018-Jul-11 10:30N 40°40' W 074°04'0 0.0
2018-Jul-11 10:00N 40°40' W 074°04'0 0.0
2018-Jul-11 09:30N 40°40' W 074°04'0 0.0
2018-Jul-11 09:00N 40°40' W 074°04'0 0.0
2018-Jul-11 08:30N 40°40' W 074°04'0 0.0
2018-Jul-11 08:00N 40°40' W 074°04'0 0.0
2018-Jul-11 07:30N 40°40' W 074°04'0 0.0
2018-Jul-11 07:00N 40°40' W 074°04'0 0.0
2018-Jul-11 06:30N 40°40' W 074°04'0 0.0
2018-Jul-11 06:00N 40°40' W 074°04'0 0.0
2018-Jul-11 05:30N 40°40' W 074°04'0 0.0
2018-Jul-11 05:00N 40°40' W 074°04'0 0.0
2018-Jul-11 04:30N 40°40' W 074°04'0 0.0
2018-Jul-11 04:00N 40°40' W 074°04'0 0.0
2018-Jul-11 03:30N 40°40' W 074°04'0 0.0
2018-Jul-11 03:00N 40°40' W 074°04'0 0.0
2018-Jul-11 02:30N 40°40' W 074°04'0 0.0
2018-Jul-11 02:00N 40°40' W 074°04'0 0.0
2018-Jul-11 01:30N 40°40' W 074°04'0 0.0
2018-Jul-11 01:00N 40°40' W 074°04'0 0.0
2018-Jul-11 00:30N 40°40' W 074°04'0 0.0
2018-Jul-11 00:00N 40°40' W 074°04'0 0.0
2018-Jul-10 23:30N 40°40' W 074°04'0 0.0
2018-Jul-10 23:00N 40°40' W 074°04'0 0.0
2018-Jul-10 22:30N 40°40' W 074°04'0 0.0
2018-Jul-10 22:00N 40°40' W 074°04'0 0.0
2018-Jul-10 21:30N 40°40' W 074°04'0 0.0
2018-Jul-10 21:00N 40°40' W 074°04'0 0.0
2018-Jul-10 20:30N 40°40' W 074°04'0 0.0
2018-Jul-10 20:00N 40°40' W 074°04'0 0.0
2018-Jul-10 19:30N 40°40' W 074°04'0 0.0
2018-Jul-10 19:00N 40°40' W 074°04'0 0.0
2018-Jul-10 18:30N 40°40' W 074°04'0 0.0
2018-Jul-10 18:00N 40°40' W 074°04'0 0.0
2018-Jul-10 17:30N 40°40' W 074°04'0 0.0
2018-Jul-10 17:00N 40°40' W 074°04'0 0.0
2018-Jul-10 16:30N 40°40' W 074°04'0 0.0
2018-Jul-10 16:00N 40°40' W 074°04'0 0.0
2018-Jul-10 15:30N 40°40' W 074°04'0 0.0
2018-Jul-10 15:00N 40°40' W 074°04'0 0.0
2018-Jul-10 14:30N 40°40' W 074°04'0 0.0
2018-Jul-10 14:00N 40°40' W 074°04'0 0.0
2018-Jul-10 13:30N 40°40' W 074°04'0 0.0
2018-Jul-10 13:00N 40°40' W 074°04'0 0.0
2018-Jul-10 12:30N 40°40' W 074°04'0 0.0
2018-Jul-10 12:00N 40°40' W 074°04'0 0.0
2018-Jul-10 11:30N 40°40' W 074°04'  

Dump ship's entire track history